Time;durP1;ratioP1;P1;durP2;ratioP2;P2;SDS_P1;SDS_P2;PMS_P1;PMS_P2;Temp;Humidity;BMP_temperature;BMP_pressure;BME280_temperature;BME280_humidity;BME280_pressure;Samples;Min_cycle;Max_cycle;Signal;HPM_P1;HPM_P2
2022/09/19 00:09:37;;;;;;;0.20;0.20;;;;;;;;;;20726343;28;20336;-73
2022/09/19 00:19:38;;;;;;;0.50;0.30;;;;;;;;;;20731684;28;20273;-73
2022/09/19 00:29:42;;;;;;;0.20;0.20;;;12.50;99.90;;;;;;20697134;28;20219;-73
2022/09/19 00:39:44;;;;;;;0.73;0.40;;;;;;;;;;20737214;28;20203;-73
2022/09/19 00:49:48;;;;;;;0.30;0.30;;;12.40;99.90;;;;;;20729938;28;20235;-73
2022/09/19 00:59:50;;;;;;;0.73;0.50;;;;;;;;;;20712764;28;20588;-73
2022/09/19 01:10:11;;;;;;;0.40;0.20;;;12.30;99.90;;;;;;20696352;28;20690;-73
2022/09/19 01:20:35;;;;;;;0.63;0.30;;;12.30;99.90;;;;;;20710487;28;20609;-73
2022/09/19 01:30:47;;;;;;;1.47;0.40;;;12.30;99.90;;;;;;20709964;28;20305;-73
2022/09/19 01:40:51;;;;;;;0.23;0.23;;;;;;;;;;20738878;28;20213;-73
2022/09/19 01:51:11;;;;;;;0.30;0.30;;;;;;;;;;20790263;28;20633;-73
2022/09/19 02:01:16;;;;;;;0.87;0.30;;;;;;;;;;20790180;28;20701;-73
2022/09/19 02:11:22;;;;;;;0.40;0.37;;;12.40;99.90;;;;;;20805152;28;20226;-72
2022/09/19 02:21:30;;;;;;;0.40;0.30;;;;;;;;;;20772947;28;20210;-72
2022/09/19 02:31:32;;;;;;;2.00;0.40;;;;;;;;;;20804258;28;20210;-72
2022/09/19 02:42:03;;;;;;;0.53;0.37;;;12.10;99.90;;;;;;20788535;28;20292;-72
2022/09/19 02:52:17;;;;;;;3.40;0.40;;;12.00;99.90;;;;;;20796611;28;20229;-72
2022/09/19 03:02:22;;;;;;;0.30;0.30;;;;;;;;;;20787859;28;20284;-73
2022/09/19 03:12:24;;;;;;;1.23;0.33;;;;;;;;;;20819050;28;20231;-73
2022/09/19 03:22:27;;;;;;;0.40;0.40;;;;;;;;;;20803406;28;20219;-73
2022/09/19 03:32:29;;;;;;;1.23;0.30;;;;;;;;;;20764731;28;20722;-72
2022/09/19 03:42:35;;;;;;;0.90;0.53;;;;;;;;;;20713435;28;20211;-72
2022/09/19 03:52:37;;;;;;;0.20;0.20;;;;;;;;;;20714499;28;20223;-72
2022/09/19 04:02:40;;;;;;;0.97;0.40;;;;;;;;;;20719982;28;20231;-72
2022/09/19 04:12:42;;;;;;;0.50;0.30;;;;;;;;;;20731873;28;20222;-72
2022/09/19 04:22:45;;;;;;;0.40;0.30;;;;;;;;;;20779620;28;20214;-73
2022/09/19 04:33:10;;;;;;;0.60;0.40;;;11.70;99.90;;;;;;20777501;28;20222;-73
2022/09/19 04:43:18;;;;;;;2.13;0.23;;;11.60;99.90;;;;;;20769571;28;20245;-73
2022/09/19 04:53:31;;;;;;;1.13;0.30;;;;;;;;;;20746968;28;20227;-73
2022/09/19 05:03:35;;;;;;;0.53;0.43;;;;;;;;;;20711366;28;20254;-73
2022/09/19 05:13:38;;;;;;;0.83;0.40;;;11.50;99.90;;;;;;20761915;28;20817;-73
2022/09/19 05:23:42;;;;;;;0.47;0.40;;;;;;;;;;20742651;28;20211;-73
2022/09/19 05:33:45;;;;;;;0.50;0.30;;;;;;;;;;20773359;28;20289;-73
2022/09/19 05:43:51;;;;;;;3.33;0.60;;;;;;;;;;20791622;28;20665;-73
2022/09/19 05:53:53;;;;;;;1.70;0.57;;;;;;;;;;20712696;28;20297;-73
2022/09/19 06:04:24;;;;;;;0.73;0.50;;;;;;;;;;20693052;22;20305;-73
2022/09/19 06:14:27;;;;;;;2.77;0.60;;;;;;;;;;20602004;28;20236;-73
2022/09/19 06:24:30;;;;;;;0.33;0.30;;;;;;;;;;20645388;28;20748;-74
2022/09/19 06:34:33;;;;;;;1.10;0.30;;;;;;;;;;20643632;28;20224;-74
2022/09/19 06:44:35;;;;;;;1.23;0.50;;;;;;;;;;20598089;28;20282;-74
2022/09/19 06:54:46;;;;;;;0.53;0.30;;;;;;;;;;20574378;28;20283;-74
2022/09/19 07:04:48;;;;;;;1.40;0.60;;;;;;;;;;20589082;28;20231;-74
2022/09/19 07:15:09;;;;;;;1.23;0.67;;;;;;;;;;20652561;28;20263;-76
2022/09/19 07:25:11;;;;;;;1.00;0.40;;;;;;;;;;20662626;28;20581;-74
2022/09/19 07:35:26;;;;;;;1.43;0.63;;;;;;;;;;20624961;28;20219;-72
2022/09/19 07:45:32;;;;;;;1.20;0.60;;;;;;;;;;20603368;28;20224;-74
2022/09/19 07:55:52;;;;;;;2.83;0.60;;;;;;;;;;20617958;28;20203;-74
2022/09/19 08:05:55;;;;;;;2.67;0.77;;;;;;;;;;20665472;28;20270;-74
2022/09/19 08:15:57;;;;;;;2.20;0.67;;;;;;;;;;20665132;28;20196;-74
2022/09/19 08:26:02;;;;;;;0.77;0.50;;;;;;;;;;20659590;28;20212;-74
2022/09/19 08:46:18;;;;;;;1.90;0.73;;;;;;;;;;21134943;27;20553;-73
2022/09/19 08:56:22;;;;;;;0.63;0.40;;;;;;;;;;21034768;28;20244;-73
2022/09/19 09:06:35;;;;;;;0.70;0.40;;;14.30;99.90;;;;;;21022972;28;20247;-73
2022/09/19 09:16:40;;;;;;;3.40;0.57;;;;;;;;;;21050139;28;20703;-74
2022/09/19 09:26:48;;;;;;;2.33;0.70;;;13.90;99.90;;;;;;21039199;28;20294;-73
2022/09/19 09:37:11;;;;;;;2.23;0.63;;;;;;;;;;21039392;28;20228;-73
2022/09/19 09:47:43;;;;;;;2.37;0.70;;;14.60;99.90;;;;;;21024267;28;20224;-73
2022/09/19 09:57:47;;;;;;;1.90;0.60;;;;;;;;;;20991375;28;20201;-73
2022/09/19 10:07:50;;;;;;;1.83;0.60;;;;;;;;;;20982609;28;20266;-73
2022/09/19 10:18:05;;;;;;;2.40;0.80;;;14.20;99.90;;;;;;20989019;28;20235;-73
2022/09/19 10:28:17;;;;;;;2.30;0.60;;;;;;;;;;20959809;28;20253;-75
2022/09/19 10:38:49;;;;;;;1.73;1.00;;;14.60;99.90;;;;;;20999809;28;20535;-74
2022/09/19 10:48:56;;;;;;;0.60;0.50;;;;;;;;;;20988164;28;20209;-74
2022/09/19 10:59:03;;;;;;;0.60;0.40;;;14.60;99.90;;;;;;20989024;28;20201;-74
2022/09/19 11:09:26;;;;;;;1.30;0.47;;;14.60;99.90;;;;;;20987249;28;20267;-74
2022/09/19 11:20:16;;;;;;;1.17;0.73;;;14.60;99.90;;;;;;20970544;28;20220;-75
2022/09/19 11:30:27;;;;;;;1.07;0.40;;;14.90;99.90;;;;;;20968750;28;20353;-74
2022/09/19 11:40:56;;;;;;;2.30;1.10;;;15.40;99.90;;;;;;20986166;28;20213;-75
2022/09/19 11:51:12;;;;;;;1.87;0.50;;;;;;;;;;20963174;28;20305;-75
2022/09/19 12:01:27;;;;;;;1.30;0.60;;;;;;;;;;20968889;28;20225;-75
2022/09/19 12:11:55;;;;;;;1.30;0.60;;;16.90;99.90;;;;;;20987133;28;20217;-75
2022/09/19 12:22:09;;;;;;;2.63;0.50;;;;;;;;;;20967420;28;20205;-75
2022/09/19 12:32:23;;;;;;;0.87;0.53;;;;;;;;;;20973668;28;20221;-75
2022/09/19 12:42:45;;;;;;;1.13;0.73;;;17.20;99.90;;;;;;20980059;28;20225;-75
2022/09/19 12:53:13;;;;;;;0.90;0.30;;;17.90;99.90;;;;;;20975452;28;20278;-75
2022/09/19 13:03:16;;;;;;;1.13;0.40;;;;;;;;;;20980589;28;20217;-74
2022/09/19 13:13:30;;;;;;;0.40;0.37;;;;;;;;;;20972178;28;20217;-74
2022/09/19 13:23:35;;;;;;;1.20;0.40;;;;;;;;;;20978226;28;20254;-74
2022/09/19 13:33:54;;;;;;;0.60;0.30;;;;;;;;;;20994914;28;20221;-73
2022/09/19 13:43:56;;;;;;;0.67;0.40;;;;;;;;;;20984239;28;20220;-74
2022/09/19 13:54:16;;;;;;;1.13;0.50;;;;;;;;;;20988125;28;20568;-73
2022/09/19 14:14:40;;;;;;;1.03;0.50;;;;;;;;;;20987099;28;20225;-74
2022/09/19 14:24:45;;;;;;;0.77;0.43;;;17.10;99.90;;;;;;20991510;28;20205;-73
2022/09/19 14:34:53;;;;;;;0.63;0.40;;;;;;;;;;20984064;28;20274;-73
2022/09/19 14:45:10;;;;;;;1.63;0.60;;;;;;;;;;20961638;28;20283;-74
2022/09/19 14:55:16;;;;;;;0.53;0.30;;;16.50;99.90;;;;;;20971945;28;20221;-74
2022/09/19 15:05:20;;;;;;;0.57;0.50;;;;;;;;;;20986262;28;20263;-75
2022/09/19 15:15:25;;;;;;;0.90;0.50;;;16.80;99.90;;;;;;20965599;28;20213;-74
2022/09/19 15:25:31;;;;;;;0.90;0.60;;;;;;;;;;20982415;28;20224;-74
2022/09/19 15:35:34;;;;;;;1.10;0.40;;;16.80;99.90;;;;;;20984101;28;20274;-74
2022/09/19 15:45:46;;;;;;;0.60;0.40;;;16.80;99.90;;;;;;20966028;28;20233;-74
2022/09/19 15:56:03;;;;;;;0.73;0.30;;;;;;;;;;20959686;28;20221;-74
2022/09/19 16:16:42;;;;;;;0.37;0.30;;;;;;;;;;20952213;28;20204;-74
2022/09/19 16:26:47;;;;;;;0.40;0.30;;;;;;;;;;20967502;28;20637;-74
2022/09/19 16:36:50;;;;;;;1.90;0.40;;;;;;;;;;20964355;28;20260;-73
2022/09/19 16:46:57;;;;;;;1.10;0.40;;;;;;;;;;20971106;28;20485;-74
2022/09/19 16:57:00;;;;;;;1.93;0.70;;;;;;;;;;20966312;28;20245;-74
2022/09/19 17:07:03;;;;;;;1.97;0.40;;;;;;;;;;20983981;28;20255;-74
2022/09/19 17:17:04;;;;;;;1.33;0.50;;;;;;;;;;20987610;28;20239;-74
2022/09/19 17:27:07;;;;;;;0.87;0.80;;;;;;;;;;20986807;28;20251;-73
2022/09/19 17:37:09;;;;;;;3.13;1.00;;;;;;;;;;20981480;28;20409;-74
2022/09/19 17:47:11;;;;;;;10.00;4.47;;;;;;;;;;20949379;28;20272;-73
2022/09/19 17:57:12;;;;;;;6.80;2.47;;;;;;;;;;20965613;28;20785;-74
2022/09/19 18:07:14;;;;;;;0.90;0.50;;;;;;;;;;20995460;22;20229;-73
2022/09/19 18:17:23;;;;;;;0.80;0.53;;;;;;;;;;20962911;28;20270;-74
2022/09/19 18:27:26;;;;;;;1.70;1.10;;;;;;;;;;20955293;28;20228;-74
2022/09/19 18:37:28;;;;;;;3.23;1.47;;;;;;;;;;20982315;28;20225;-74
2022/09/19 18:47:30;;;;;;;4.97;1.53;;;14.70;99.90;;;;;;20984658;28;20279;-73
2022/09/19 18:57:33;;;;;;;2.73;1.30;;;;;;;;;;20980149;28;20262;-73
2022/09/19 19:07:34;;;;;;;0.83;0.50;;;;;;;;;;20953148;28;20282;-74
2022/09/19 19:17:36;;;;;;;1.43;0.87;;;;;;;;;;20984996;28;20205;-74
2022/09/19 19:27:38;;;;;;;0.97;0.53;;;;;;;;;;20948992;28;20213;-74
2022/09/19 19:37:39;;;;;;;0.80;0.50;;;;;;;;;;20959406;28;20695;-73
2022/09/19 19:47:41;;;;;;;2.13;1.03;;;;;;;;;;20975193;28;20221;-74
2022/09/19 19:57:43;;;;;;;3.30;1.20;;;;;;;;;;20921216;28;20213;-74
2022/09/19 20:07:46;;;;;;;1.73;0.90;;;;;;;;;;20962461;28;20259;-74
2022/09/19 20:17:49;;;;;;;2.17;1.23;;;;;;;;;;20981720;28;20197;-74
2022/09/19 20:27:58;;;;;;;3.83;2.03;;;;;;;;;;20961481;28;20243;-74
2022/09/19 20:38:00;;;;;;;6.77;4.13;;;;;;;;;;20981998;28;20224;-75
2022/09/19 20:48:04;;;;;;;4.03;2.10;;;;;;;;;;20983376;28;20346;-74
2022/09/19 20:58:06;;;;;;;3.90;2.20;;;;;;;;;;20983460;28;20209;-74
2022/09/19 21:08:07;;;;;;;2.80;1.27;;;;;;;;;;20961468;28;20769;-73
2022/09/19 21:18:09;;;;;;;2.47;0.67;;;;;;;;;;20980299;28;20225;-73
2022/09/19 21:28:11;;;;;;;1.20;0.70;;;;;;;;;;20980473;28;20229;-74
2022/09/19 21:38:13;;;;;;;1.50;0.87;;;;;;;;;;20956615;28;20213;-74
2022/09/19 21:48:15;;;;;;;2.13;0.90;;;;;;;;;;20975308;28;20221;-74
2022/09/19 21:58:17;;;;;;;1.67;1.00;;;;;;;;;;20991917;28;20634;-74
2022/09/19 22:08:19;;;;;;;2.20;0.87;;;;;;;;;;20984973;28;20594;-74
2022/09/19 22:18:21;;;;;;;2.17;0.87;;;;;;;;;;20974172;28;20259;-74
2022/09/19 22:28:23;;;;;;;1.00;0.73;;;;;;;;;;20992134;28;20209;-74
2022/09/19 22:38:25;;;;;;;2.00;0.80;;;;;;;;;;20990338;28;20225;-74
2022/09/19 22:48:30;;;;;;;1.90;0.80;;;;;;;;;;20956244;28;20221;-75
2022/09/19 22:58:33;;;;;;;0.73;0.60;;;;;;;;;;20971109;28;20262;-73
2022/09/19 23:08:35;;;;;;;1.30;0.60;;;;;;;;;;20983567;28;20213;-73
2022/09/19 23:18:37;;;;;;;0.97;0.60;;;;;;;;;;20986823;28;20213;-73
2022/09/19 23:28:40;;;;;;;1.70;0.80;;;;;;;;;;20968957;28;20723;-73
2022/09/19 23:38:42;;;;;;;0.63;0.50;;;;;;;;;;20986411;28;20221;-73
2022/09/19 23:48:44;;;;;;;2.00;0.90;;;;;;;;;;20985132;28;20711;-74
2022/09/19 23:58:46;;;;;;;2.60;0.60;;;;;;;;;;20982446;28;20781;-74
